Latest Weather Observations for Darwin Airport

IDD60801

Issued at 2:31 pm CST Wednesday 29 June 2016 (issued every 30 minutes, with the page automatically refreshed every 10 minutes)

About weather observations | Map of weather stations | Latest weather observations for NT | Other Formats
Station Details ID: 014015 Name: DARWIN AIRPORT Lat: -12.42 Lon: 130.89 Height: 30.4 m
Data from the previous 72 hours. | See also: Recent months at Darwin Airport
Date/Time
CST
Temp
°C
App
Temp
°C
Dew
Point
°C
Rel
Hum
%
Delta-T
°C
Wind Press
QNH
hPa
Press
MSL
hPa
Rain since
9am
mm
Dir  Spd
km/h
Gust
km/h
Spd
kts
Gust
kts
29/02:00pm 31.7 28.8 15.2 36 10.2 E 24 33 13 18 1012.8 1012.6 0.0
29/01:30pm 31.9 28.7 15.3 36 10.3 ENE 26 41 14 22 1013.4 1013.2 0.0
29/01:07pm 31.3 27.5 14.8 36 10.1 ENE 28 54 15 29 1014.0 1013.8 0.0
29/01:00pm 31.3 27.6 15.1 37 10.0 E 28 39 15 21 1014.3 1014.1 0.0
29/12:30pm 30.8 27.3 14.6 37 9.9 E 26 35 14 19 1014.8 1014.6 0.0
29/12:00pm 30.6 26.4 13.6 35 10.2 E 28 37 15 20 1015.4 1015.2 0.0
29/11:30am 29.5 25.0 12.7 35 9.9 ESE 28 37 15 20 1015.9 1015.7 0.0
29/11:00am 28.1 23.9 13.4 40 8.7 ESE 28 33 15 18 1016.2 1016.0 0.0
29/10:30am 26.6 21.9 13.1 43 7.9 ESE 30 35 16 19 1016.4 1016.2 0.0
29/10:00am 26.3 21.1 13.4 45 7.6 ESE 33 44 18 24 1016.8 1016.6 0.0
29/09:30am 25.6 21.7 14.3 49 6.7 ESE 28 41 15 22 1016.9 1016.7 0.0
29/09:00am 25.1 20.8 14.5 51 6.3 ESE 30 41 16 22 1016.9 1016.7 0.0
29/08:30am 24.4 20.9 15.6 58 5.3 ESE 28 35 15 19 1016.8 1016.6 0.0
29/08:00am 23.5 21.1 16.3 64 4.4 ESE 24 30 13 16 1016.6 1016.4 0.0
29/07:30am 22.8 21.2 16.0 65 4.1 E 19 22 10 12 1016.3 1016.1 0.0
29/07:00am 22.8 21.8 16.6 68 3.8 E 17 20 9 11 1016.1 1015.9 0.0
29/06:30am 23.0 21.6 16.6 67 3.9 E 19 22 10 12 1015.7 1015.5 0.0
29/06:00am 23.3 21.9 16.6 66 4.1 E 19 24 10 13 1015.5 1015.3 0.0
29/05:30am 23.5 22.0 16.8 66 4.1 E 20 26 11 14 1015.2 1015.0 0.0
29/05:00am 23.8 22.0 17.0 65 4.2 E 22 28 12 15 1015.0 1014.8 0.0
29/04:30am 24.2 22.3 16.7 63 4.6 E 22 28 12 15 1014.8 1014.6 0.0
29/04:00am 24.3 21.9 16.5 61 4.8 E 24 32 13 17 1015.0 1014.8 0.0
29/03:30am 24.7 21.5 16.4 60 5.1 E 28 37 15 20 1014.9 1014.7 0.0
29/03:00am 25.0 21.6 15.8 56 5.6 E 28 35 15 19 1015.0 1014.8 0.0
29/02:30am 25.5 23.4 15.2 53 6.2 ESE 20 28 11 15 1015.0 1014.8 0.0
29/02:00am 25.5 24.7 16.2 56 5.7 SE 15 20 8 11 1015.1 1014.9 0.0
29/01:30am 25.5 26.4 18.4 65 4.5 SE 11 13 6 7 1015.1 1014.9 0.0
29/01:00am 25.6 27.3 20.9 75 3.1 SSE 13 19 7 10 1015.1 1014.9 0.0
29/12:30am 25.2 28.1 22.5 85 1.8 S 11 13 6 7 1015.2 1015.0 0.0
29/12:00am 25.7 28.5 23.0 85 1.8 S 13 17 7 9 1015.3 1015.1 0.0
 
Date/Time
CST
Temp
°C
App
Temp
°C
Dew
Point
°C
Rel
Hum
%
Delta-T
°C
Wind Press
QNH
hPa
Press
MSL
hPa
Rain since
9am
mm
Dir  Spd
km/h
Gust
km/h
Spd
kts
Gust
kts
28/11:30pm 26.0 28.5 22.4 80 2.4 S 13 17 7 9 1015.2 1015.0 0.0
28/11:00pm 26.5 28.5 21.5 74 3.3 S 13 17 7 9 1015.3 1015.1 0.0
28/10:30pm 26.6 29.0 21.5 73 3.4 S 11 15 6 8 1015.3 1015.1 0.0
28/10:00pm 26.4 29.3 21.1 72 3.5 SE 7 11 4 6 1014.8 1014.6 0.0
28/09:30pm 25.8 28.9 21.4 76 2.9 ENE 7 9 4 5 1014.5 1014.3 0.0
28/09:00pm 25.9 28.5 21.2 75 3.1 ENE 9 11 5 6 1014.3 1014.1 0.0
28/08:30pm 26.5 28.8 21.4 73 3.4 NE 11 13 6 7 1014.1 1013.9 0.0
28/08:00pm 27.1 29.9 21.6 72 3.7 NNE 9 11 5 6 1013.7 1013.5 0.0
28/07:30pm 27.6 30.0 21.5 69 4.1 NNE 11 15 6 8 1013.4 1013.2 0.0
28/07:00pm 28.4 30.1 21.7 67 4.5 NNE 15 17 8 9 1013.1 1012.9 0.0
28/06:30pm 29.6 30.6 21.1 60 5.7 NNE 17 24 9 13 1012.8 1012.6 0.0
28/06:00pm 31.5 30.7 17.0 41 9.2 NE 17 22 9 12 1012.4 1012.2 0.0
28/05:30pm 32.0 30.7 16.9 40 9.6 E 19 28 10 15 1012.1 1011.9 0.0
28/05:00pm 32.0 30.7 16.7 40 9.7 ESE 19 30 10 16 1011.9 1011.7 0.0
28/04:30pm 32.3 30.7 16.5 38 10.0 ESE 20 30 11 16 1011.7 1011.5 0.0
28/04:00pm 32.2 30.2 16.5 39 9.9 ESE 22 32 12 17 1011.6 1011.4 0.0
28/03:30pm 33.0 30.6 17.4 39 10.0 E 26 35 14 19 1011.6 1011.4 0.0
28/03:00pm 32.0 29.7 17.5 42 9.3 E 26 35 14 19 1011.8 1011.6 0.0
28/02:30pm 32.4 29.7 17.6 41 9.5 E 28 35 15 19 1012.0 1011.8 0.0
28/02:00pm 32.7 29.3 17.8 41 9.6 E 32 43 17 23 1012.3 1012.1 0.0
28/01:30pm 32.2 29.5 17.5 41 9.4 E 28 48 15 26 1012.7 1012.5 0.0
28/01:00pm 32.1 28.7 17.6 42 9.3 E 32 41 17 22 1013.2 1013.0 0.0
28/12:30pm 31.5 28.0 17.8 44 8.8 ENE 33 43 18 23 1013.6 1013.4 0.0
28/12:00pm 31.7 28.7 18.6 45 8.5 E 32 48 17 26 1014.1 1013.9 0.0
28/11:59am 31.1 28.5 18.6 47 8.1 E 30 48 16 26 1014.1 1013.9 0.0
28/11:30am 29.5 27.8 18.1 50 7.3 ENE 24 33 13 18 1014.5 1014.3 0.0
28/11:00am 28.6 26.6 19.2 56 6.1 E 28 35 15 19 1014.9 1014.7 0.0
28/10:30am 28.5 25.9 19.9 59 5.6 E 33 41 18 22 1015.2 1015.0 0.0
28/10:00am 27.7 25.2 20.2 63 4.9 ESE 33 48 18 26 1015.2 1015.0 0.0
28/09:30am 27.2 26.1 20.2 65 4.6 E 26 35 14 19 1015.1 1014.9 0.0
28/09:00am 26.9 27.2 21.5 72 3.6 E 22 28 12 15 1014.9 1014.7 0.0
28/08:30am 25.4 26.7 21.6 79 2.5 E 17 22 9 12 1014.6 1014.4 0.0
28/08:00am 24.5 25.8 21.6 84 1.9 ESE 17 22 9 12 1014.2 1014.0 0.0
28/07:30am 23.9 25.6 21.6 87 1.5 E 15 22 8 12 1014.0 1013.8 0.0
28/07:00am 24.0 25.6 21.4 85 1.7 ESE 15 19 8 10 1013.7 1013.5 0.0
28/06:30am 23.9 26.1 21.8 88 1.4 E 13 13 7 7 1013.3 1013.1 0.0
28/06:00am 23.9 26.5 21.9 88 1.3 ESE 11 17 6 9 1013.0 1012.8 0.0
28/05:30am 24.2 26.4 21.9 87 1.5 ESE 13 15 7 8 1012.8 1012.6 0.0
28/05:00am 24.2 26.0 21.9 87 1.5 E 15 17 8 9 1012.7 1012.5 0.0
28/04:30am 23.9 26.2 22.1 90 1.2 ESE 13 15 7 8 1012.6 1012.4 0.0
28/04:00am 24.0 26.4 22.2 90 1.2 SE 13 15 7 8 1012.6 1012.4 0.0
28/03:30am 24.2 26.6 22.3 89 1.3 SE 13 15 7 8 1012.7 1012.5 0.0
28/03:00am 24.3 26.8 22.4 89 1.3 SE 13 15 7 8 1013.1 1012.9 0.0
28/02:30am 24.5 27.5 22.6 89 1.3 SE 11 15 6 8 1013.3 1013.1 0.0
28/02:00am 24.7 27.7 22.6 88 1.4 SE 11 13 6 7 1013.5 1013.3 0.0
28/01:30am 24.0 27.1 22.2 90 1.2 SE 9 9 5 5 1013.7 1013.5 0.0
28/01:00am 24.2 27.8 22.4 90 1.2 SSE 7 7 4 4 1014.0 1013.8 0.0
28/12:30am 24.7 28.4 22.3 86 1.6 SSE 6 7 3 4 1014.0 1013.8 0.0
28/12:00am 25.1 28.7 22.3 84 1.9 SE 7 9 4 5 1014.0 1013.8 0.0
 
Date/Time
CST
Temp
°C
App
Temp
°C
Dew
Point
°C
Rel
Hum
%
Delta-T
°C
Wind Press
QNH
hPa
Press
MSL
hPa
Rain since
9am
mm
Dir  Spd
km/h
Gust
km/h
Spd
kts
Gust
kts
27/11:30pm 25.1 28.7 22.3 84 1.9 ESE 7 9 4 5 1014.1 1013.9 0.0
27/11:00pm 25.8 29.3 22.2 80 2.4 SE 7 9 4 5 1014.2 1014.0 0.0
27/10:30pm 26.1 29.2 22.2 79 2.6 ESE 9 9 5 5 1014.1 1013.9 0.0
27/10:00pm 26.0 29.1 22.1 79 2.6 E 9 9 5 5 1013.7 1013.5 0.0
27/09:30pm 26.1 29.2 22.1 78 2.7 ESE 9 11 5 6 1013.4 1013.2 0.0
27/09:00pm 26.4 29.4 21.9 76 3.0 ESE 9 9 5 5 1013.2 1013.0 0.0
27/08:30pm 26.3 29.5 22.3 78 2.7 ENE 9 11 5 6 1012.7 1012.5 0.0
27/08:00pm 26.7 29.1 22.2 76 3.0 NE 13 15 7 8 1012.3 1012.1 0.0
27/07:30pm 27.2 30.1 22.5 75 3.2 ENE 11 13 6 7 1012.0 1011.8 0.0
27/07:00pm 27.6 30.1 22.4 73 3.5 NE 13 20 7 11 1011.6 1011.4 0.0
27/06:30pm 28.2 30.7 22.4 71 3.9 NNE 13 19 7 10 1011.2 1011.0 0.0
27/06:00pm 29.0 30.3 22.4 67 4.5 NNE 19 26 10 14 1010.8 1010.6 0.0
27/05:30pm 29.6 30.7 22.4 65 4.9 NNE 20 28 11 15 1010.4 1010.2 0.0
27/05:00pm 30.6 32.5 22.7 62 5.4 NNE 17 24 9 13 1010.2 1010.0 0.0
27/04:30pm 30.7 32.5 22.5 61 5.6 N 17 24 9 13 1009.9 1009.7 0.0
27/04:00pm 31.7 33.1 22.5 58 6.3 N 19 26 10 14 1009.8 1009.6 0.0
27/03:30pm 31.3 32.6 22.7 60 5.9 NW 20 28 11 15 1009.8 1009.6 0.0
27/03:00pm 33.9 31.8 14.7 31 11.9 NW 19 37 10 20 1010.0 1009.8 0.0
27/02:30pm 33.9 33.0 16.8 36 10.9 NW 17 20 9 11 1010.3 1010.1 0.0
27/02:00pm 33.3 31.7 16.0 35 10.9 E 19 32 10 17 1010.8 1010.6 0.0
27/01:30pm 32.5 31.7 17.9 41 9.4 ENE 19 30 10 16 1011.3 1011.1 0.0
27/01:00pm 32.6 32.3 19.6 46 8.6 E 20 39 11 21 1011.8 1011.6 0.0
27/12:30pm 31.7 32.1 19.0 47 8.3 ENE 15 22 8 12 1012.5 1012.3 0.0
27/12:00pm 30.8 30.9 20.0 52 7.1 ENE 19 28 10 15 1013.0 1012.8 0.0
27/11:30am 30.2 31.4 21.4 59 5.9 NE 17 26 9 14 1013.3 1013.1 0.0
27/11:00am 29.3 30.9 21.4 62 5.3 ENE 15 20 8 11 1013.7 1013.5 0.0
27/10:30am 29.3 31.2 22.0 64 4.9 ENE 15 20 8 11 1013.8 1013.6 0.0
27/10:00am 28.2 30.1 22.8 72 3.7 ENE 17 22 9 12 1014.1 1013.9 0.0
27/09:30am 28.2 30.8 22.6 71 3.8 ENE 13 19 7 10 1014.1 1013.9 0.0
27/09:00am 28.4 31.5 22.2 69 4.2 ENE 9 11 5 6 1013.8 1013.6 0.0
27/08:30am 26.2 29.4 21.7 76 3.0 E 7 9 4 5 1013.6 1013.4 0.0
27/08:00am 23.6 26.5 21.8 90 1.2 ESE 9 9 5 5 1013.4 1013.2 0.0
27/07:45am 22.0 24.7 21.4 96 0.4 ENE 9 11 5 6 1013.0 1012.8 0.0
27/07:30am 21.6 24.4 20.8 95 0.5 ESE 7 9 4 5 1012.8 1012.6 0.0
27/07:00am 21.6 24.3 20.7 95 0.6 E 7 9 4 5 1012.6 1012.4 0.0
27/06:30am 21.9 24.9 20.8 93 0.7 SE 6 9 3 5 1012.4 1012.2 0.0
27/06:23am 22.2 24.9 21.3 95 0.6 SE 9 9 5 5 1012.3 1012.1 0.0
27/06:00am 22.8 25.5 21.4 92 0.9 SE 9 11 5 6 1012.2 1012.0 0.0
27/05:30am 22.9 26.0 21.4 91 1.0 SE 7 9 4 5 1012.1 1011.9 0.0
27/05:00am 23.1 26.4 21.4 90 1.1 ESE 6 7 3 4 1011.9 1011.7 0.0
27/04:30am 23.2 26.1 21.7 91 1.0 SSE 9 11 5 6 1011.7 1011.5 0.0
27/04:00am 22.2 25.4 21.3 95 0.6 E 6 7 3 4 1011.7 1011.5 0.0
27/03:30am 22.3 26.7 21.4 95 0.6 CALM 0 4 0 2 1011.7 1011.5 0.0
27/03:00am 23.4 26.6 22.4 94 0.7 S 9 9 5 5 1011.7 1011.5 0.0
27/02:51am 23.3 26.5 22.3 94 0.7 SSE 9 9 5 5 1011.8 1011.6 0.0
27/02:30am 22.6 26.3 21.4 93 0.8 SE 4 6 2 3 1011.9 1011.7 0.0
27/02:00am 23.2 26.2 22.0 93 0.8 SE 9 9 5 5 1012.2 1012.0 0.0
27/01:30am 23.7 26.7 22.0 90 1.1 SSE 9 11 5 6 1012.2 1012.0 0.0
27/01:00am 22.9 25.9 21.2 90 1.1 SSE 7 9 4 5 1012.4 1012.2 0.0
27/12:30am 23.0 26.2 21.2 89 1.2 SSE 6 9 3 5 1012.5 1012.3 0.0
27/12:00am 23.3 26.2 21.0 87 1.5 SSE 7 9 4 5 1012.5 1012.3 0.0
 
Date/Time
CST
Temp
°C
App
Temp
°C
Dew
Point
°C
Rel
Hum
%
Delta-T
°C
Wind Press
QNH
hPa
Press
MSL
hPa
Rain since
9am
mm
Dir  Spd
km/h
Gust
km/h
Spd
kts
Gust
kts
26/11:30pm 23.7 26.7 21.3 86 1.6 S 7 9 4 5 1012.6 1012.4 0.0
26/11:00pm 24.1 26.6 21.1 83 2.0 SSW 9 9 5 5 1012.6 1012.4 0.0
26/10:30pm 24.2 28.6 21.3 84 1.9 CALM 0 0 0 0 1012.7 1012.5 0.0
26/10:00pm 24.5 28.9 21.3 82 2.1 CALM 0 0 0 0 1012.7 1012.5 0.0
26/09:30pm 25.0 28.3 21.5 81 2.3 NNE 6 6 3 3 1012.5 1012.3 0.0
26/09:00pm 25.7 28.8 21.5 77 2.8 NNE 7 9 4 5 1012.3 1012.1 0.0
26/08:30pm 26.4 29.1 21.3 73 3.4 NNE 9 13 5 7 1012.2 1012.0 0.0
26/08:00pm 26.7 29.2 21.1 71 3.7 N 9 11 5 6 1011.8 1011.6 0.0
26/07:30pm 26.9 28.5 20.8 69 4.0 NNE 13 15 7 8 1011.5 1011.3 0.0
26/07:00pm 27.5 29.0 20.5 65 4.6 N 13 17 7 9 1011.1 1010.9 0.0
26/06:30pm 27.9 29.2 20.8 65 4.7 N 15 19 8 10 1010.9 1010.7 0.0
26/06:00pm 28.5 29.5 20.3 61 5.4 N 15 19 8 10 1010.6 1010.4 0.0
26/05:30pm 28.9 29.2 20.3 59 5.7 N 19 26 10 14 1010.2 1010.0 0.0
26/05:00pm 29.0 29.2 20.5 60 5.6 N 20 24 11 13 1010.0 1009.8 0.0
26/04:30pm 29.7 29.7 20.2 56 6.3 N 20 26 11 14 1009.9 1009.7 0.0
26/04:00pm 30.9 31.5 20.2 53 7.1 NNW 17 22 9 12 1009.8 1009.6 0.0
26/03:30pm 31.4 31.6 20.1 51 7.5 NNW 19 26 10 14 1010.0 1009.8 0.0
26/03:00pm 31.4 31.7 20.3 51 7.4 NNW 19 26 10 14 1010.2 1010.0 0.0

Other Formats:

Comma delimited format used in spreadsheet applications
http://www.bom.gov.au/fwo/IDD60801/IDD60801.94120.axf

JavaScript Object Notation format (JSON) in row-major order
http://www.bom.gov.au/fwo/IDD60801/IDD60801.94120.json